createdAt,value
2022-09-22T00:01:33.943Z,54.18
2022-09-22T00:04:06.590Z,54.18
2022-09-22T00:06:40.062Z,54.22
2022-09-22T00:09:10.702Z,54.29
2022-09-22T00:11:42.883Z,53.87
2022-09-22T00:14:21.286Z,54.08
2022-09-22T00:16:53.214Z,53.97
2022-09-22T00:19:24.067Z,54.50
2022-09-22T00:21:52.016Z,54.63
2022-09-22T00:24:23.123Z,54.30
2022-09-22T00:26:52.416Z,54.50
2022-09-22T00:29:32.164Z,54.68
2022-09-22T00:32:03.666Z,54.89
2022-09-22T00:34:35.178Z,54.65
2022-09-22T00:37:03.229Z,55.01
2022-09-22T00:39:33.015Z,54.75
2022-09-22T00:42:00.862Z,54.84
2022-09-22T00:44:39.291Z,55.10
2022-09-22T00:47:13.045Z,55.30
2022-09-22T00:49:47.434Z,54.95
2022-09-22T00:52:23.494Z,55.54
2022-09-22T00:54:55.117Z,55.24
2022-09-22T00:57:29.384Z,54.95
2022-09-22T00:59:57.745Z,54.86
2022-09-22T01:02:25.456Z,54.79
2022-09-22T01:04:53.382Z,54.78
2022-09-22T01:07:23.647Z,54.63
2022-09-22T01:09:52.748Z,54.59
2022-09-22T01:12:20.489Z,54.69
2022-09-22T01:15:21.780Z,54.84
2022-09-22T01:18:03.902Z,54.72
2022-09-22T01:20:47.377Z,54.17
2022-09-22T01:23:39.735Z,54.07
2022-09-22T01:26:26.704Z,54.17
2022-09-22T01:29:20.073Z,54.44
2022-09-22T01:32:10.783Z,54.44
2022-09-22T01:34:56.980Z,54.35
2022-09-22T01:37:49.962Z,54.54
2022-09-22T01:40:31.606Z,54.29
2022-09-22T01:43:15.576Z,54.51
2022-09-22T01:45:48.872Z,54.03
2022-09-22T01:48:32.216Z,54.18
2022-09-22T01:51:26.403Z,54.46
2022-09-22T01:54:06.796Z,54.70
2022-09-22T01:56:37.571Z,54.83
2022-09-22T01:59:08.686Z,55.14
2022-09-22T02:01:42.025Z,55.35
2022-09-22T02:04:36.771Z,55.66
2022-09-22T02:07:10.933Z,55.88
2022-09-22T02:09:41.904Z,55.69
2022-09-22T02:12:09.939Z,55.78
2022-09-22T02:14:38.089Z,55.89
2022-09-22T02:17:08.586Z,55.82
2022-09-22T02:19:41.349Z,57.70
2022-09-22T02:22:11.672Z,55.73
2022-09-22T02:24:45.152Z,56.00
2022-09-22T02:27:27.602Z,55.87
2022-09-22T02:30:11.617Z,55.88
2022-09-22T02:32:57.168Z,55.92
2022-09-22T02:35:49.278Z,55.75
2022-09-22T02:38:27.220Z,55.82
2022-09-22T02:41:07.297Z,55.91
2022-09-22T02:43:50.702Z,56.03
2022-09-22T02:46:26.311Z,55.95
2022-09-22T02:49:00.608Z,55.62
2022-09-22T02:51:30.792Z,55.60
2022-09-22T02:53:58.975Z,55.54
2022-09-22T02:56:26.841Z,55.77
2022-09-22T02:58:58.319Z,55.91
2022-09-22T03:01:27.254Z,56.05
2022-09-22T03:03:55.156Z,55.80
2022-09-22T03:06:23.715Z,55.86
2022-09-22T03:08:52.146Z,55.86
2022-09-22T03:11:19.884Z,55.89
2022-09-22T03:13:47.228Z,55.74
2022-09-22T03:16:15.176Z,55.82
2022-09-22T03:18:43.172Z,56.20
2022-09-22T03:21:10.852Z,56.50
2022-09-22T03:23:38.738Z,55.99
2022-09-22T03:26:06.377Z,56.16
2022-09-22T03:28:34.217Z,56.16
2022-09-22T03:31:01.731Z,56.50
2022-09-22T03:33:29.567Z,56.44
2022-09-22T03:35:57.499Z,56.35
2022-09-22T03:38:25.078Z,56.53
2022-09-22T03:40:54.195Z,56.34
2022-09-22T03:43:22.262Z,56.49
2022-09-22T03:45:57.669Z,56.79
2022-09-22T03:48:26.399Z,56.84
2022-09-22T03:50:54.489Z,56.83
2022-09-22T03:53:23.010Z,56.75
2022-09-22T03:55:51.345Z,56.78
2022-09-22T03:58:23.923Z,56.83
2022-09-22T04:00:51.893Z,56.74
2022-09-22T04:03:19.328Z,56.67
2022-09-22T04:05:51.412Z,56.19
2022-09-22T04:08:19.276Z,56.06
2022-09-22T04:10:47.753Z,56.13
2022-09-22T04:13:16.346Z,55.77
2022-09-22T04:15:46.024Z,55.77
2022-09-22T04:18:15.050Z,55.86
2022-09-22T04:20:48.241Z,55.70
2022-09-22T04:23:27.987Z,55.90
2022-09-22T04:26:06.152Z,55.49
2022-09-22T04:28:34.519Z,55.77
2022-09-22T04:31:02.483Z,55.94
2022-09-22T04:33:35.332Z,55.72
2022-09-22T04:36:07.147Z,55.66
2022-09-22T04:38:38.121Z,55.52
2022-09-22T04:41:06.075Z,55.67
2022-09-22T04:43:34.623Z,55.73
2022-09-22T04:46:02.356Z,55.65
2022-09-22T04:48:30.460Z,55.60
2022-09-22T04:51:01.545Z,55.16
2022-09-22T04:53:30.138Z,55.19
2022-09-22T04:55:58.604Z,55.19
2022-09-22T04:58:27.398Z,55.02
2022-09-22T05:00:56.072Z,54.59
2022-09-22T05:03:23.644Z,55.10
2022-09-22T05:05:51.390Z,55.19
2022-09-22T05:08:19.358Z,54.95
2022-09-22T05:10:47.229Z,55.13
2022-09-22T05:13:15.746Z,54.90
2022-09-22T05:15:43.573Z,54.83
2022-09-22T05:18:11.612Z,54.79
2022-09-22T05:20:40.334Z,54.91
2022-09-22T05:23:07.790Z,54.99
2022-09-22T05:25:39.112Z,54.72
2022-09-22T05:28:06.570Z,54.85
2022-09-22T05:30:37.302Z,54.71
2022-09-22T05:33:08.772Z,55.25
2022-09-22T05:35:37.201Z,55.00
2022-09-22T05:38:05.209Z,55.41
2022-09-22T05:40:32.916Z,55.33
2022-09-22T05:43:01.170Z,55.33
2022-09-22T05:45:29.109Z,55.80
2022-09-22T05:47:56.742Z,55.80
2022-09-22T05:50:24.806Z,56.11
2022-09-22T05:53:03.344Z,55.91
2022-09-22T05:55:30.824Z,55.88
2022-09-22T05:58:00.302Z,55.85
2022-09-22T06:00:29.357Z,56.03
2022-09-22T06:02:58.213Z,55.62
2022-09-22T06:05:28.000Z,55.61
2022-09-22T06:08:04.384Z,55.58
2022-09-22T06:10:36.006Z,56.08
2022-09-22T06:13:12.926Z,56.16
2022-09-22T06:15:40.523Z,56.05
2022-09-22T06:18:14.680Z,56.10
2022-09-22T06:20:43.834Z,56.03
2022-09-22T06:23:13.715Z,56.14
2022-09-22T06:25:44.110Z,56.02
2022-09-22T06:28:14.813Z,55.88
2022-09-22T06:30:43.009Z,55.88
2022-09-22T06:33:13.105Z,55.95
2022-09-22T06:35:43.423Z,56.14
2022-09-22T06:38:15.548Z,56.44
2022-09-22T06:40:44.489Z,56.03
2022-09-22T06:43:24.166Z,56.57
2022-09-22T06:45:53.263Z,56.89
2022-09-22T06:48:24.750Z,56.61
2022-09-22T06:50:54.391Z,56.53
2022-09-22T06:53:25.259Z,56.26
2022-09-22T06:55:54.533Z,56.64
2022-09-22T06:58:25.833Z,56.31
2022-09-22T07:00:54.114Z,55.90
2022-09-22T07:03:25.049Z,55.63
2022-09-22T07:06:01.484Z,56.28
2022-09-22T07:08:34.625Z,56.51
2022-09-22T07:11:09.191Z,54.56
2022-09-22T07:13:42.455Z,55.80
2022-09-22T07:16:18.965Z,54.22
2022-09-22T07:18:55.370Z,53.58
2022-09-22T07:21:27.935Z,55.20
2022-09-22T07:23:57.150Z,53.01
2022-09-22T07:26:34.419Z,53.93
2022-09-22T07:29:08.925Z,52.72
2022-09-22T07:31:37.365Z,53.27
2022-09-22T07:34:05.215Z,54.12
2022-09-22T07:36:35.389Z,53.27
2022-09-22T07:39:07.758Z,54.90
2022-09-22T07:41:42.114Z,53.00
2022-09-22T07:44:29.945Z,53.04
2022-09-22T07:46:58.581Z,52.28
2022-09-22T07:49:26.704Z,53.26
2022-09-22T07:51:55.358Z,53.58
2022-09-22T07:54:27.188Z,52.95
2022-09-22T07:57:07.128Z,54.41
2022-09-22T07:59:36.604Z,55.05
2022-09-22T08:02:06.474Z,54.35
2022-09-22T08:04:37.589Z,54.52
2022-09-22T08:07:07.624Z,54.81
2022-09-22T08:09:35.185Z,55.44
2022-09-22T08:12:04.671Z,55.68
2022-09-22T08:14:32.644Z,55.51
2022-09-22T08:17:00.473Z,55.50
2022-09-22T08:19:28.248Z,55.40
2022-09-22T08:21:56.109Z,55.83
2022-09-22T08:24:24.543Z,55.97
2022-09-22T08:26:56.473Z,55.10
2022-09-22T08:29:24.954Z,54.52
2022-09-22T08:31:54.526Z,54.97
2022-09-22T08:34:23.020Z,53.59
2022-09-22T08:36:51.061Z,55.40
2022-09-22T08:39:18.841Z,54.60
2022-09-22T08:42:06.292Z,53.40
2022-09-22T08:44:59.105Z,53.69
2022-09-22T08:48:00.720Z,52.41
2022-09-22T08:50:56.382Z,53.83
2022-09-22T08:53:24.881Z,53.82
2022-09-22T08:56:15.635Z,51.12
2022-09-22T08:59:09.972Z,52.73
2022-09-22T09:01:56.310Z,51.78
2022-09-22T09:04:43.005Z,52.18
2022-09-22T09:07:50.280Z,53.25
2022-09-22T09:10:39.863Z,51.87
2022-09-22T09:13:28.841Z,53.29
2022-09-22T09:16:28.291Z,54.71
2022-09-22T09:19:15.816Z,54.79
2022-09-22T09:21:58.424Z,55.00
2022-09-22T09:27:35.130Z,53.47
2022-09-22T09:30:24.148Z,52.97
2022-09-22T09:33:06.485Z,53.63
2022-09-22T09:35:53.710Z,53.38
2022-09-22T09:38:36.169Z,53.14
2022-09-22T09:41:16.834Z,52.65
2022-09-22T09:43:46.092Z,51.91
2022-09-22T09:46:26.944Z,51.54
2022-09-22T09:49:17.027Z,50.12
2022-09-22T09:51:53.219Z,49.92
2022-09-22T09:54:23.777Z,48.68
2022-09-22T09:57:09.787Z,48.52
2022-09-22T09:59:57.872Z,49.48
2022-09-22T10:02:48.339Z,48.63
2022-09-22T10:05:18.762Z,46.72
2022-09-22T10:07:57.046Z,48.14
2022-09-22T10:10:32.768Z,46.23
2022-09-22T10:13:06.275Z,46.50
2022-09-22T10:15:39.312Z,46.20
2022-09-22T10:18:25.131Z,47.41
2022-09-22T10:21:20.286Z,47.57
2022-09-22T10:23:52.307Z,48.13
2022-09-22T10:26:26.724Z,48.34
2022-09-22T10:29:19.585Z,47.98
2022-09-22T10:32:18.450Z,47.10
2022-09-22T10:34:49.518Z,46.17
2022-09-22T10:37:20.397Z,46.87
2022-09-22T10:39:52.831Z,47.61
2022-09-22T10:42:48.719Z,47.73
2022-09-22T10:45:20.975Z,47.84
2022-09-22T10:48:00.942Z,48.13
2022-09-22T10:50:32.443Z,48.04
2022-09-22T10:53:27.980Z,48.08
2022-09-22T10:56:14.366Z,49.47
2022-09-22T10:59:04.533Z,48.60
2022-09-22T11:01:50.409Z,48.29
2022-09-22T11:05:09.198Z,50.01
2022-09-22T11:08:23.952Z,50.20
2022-09-22T11:11:19.019Z,50.39
2022-09-22T11:14:16.718Z,49.33
2022-09-22T11:17:21.479Z,50.03
2022-09-22T11:20:17.030Z,50.75
2022-09-22T11:23:26.588Z,50.78
2022-09-22T11:26:25.327Z,50.75
2022-09-22T11:29:27.318Z,51.04
2022-09-22T11:32:15.917Z,51.77
2022-09-22T11:35:17.113Z,51.81
2022-09-22T11:38:24.669Z,51.99
2022-09-22T11:41:16.815Z,52.03
2022-09-22T11:43:59.344Z,53.05
2022-09-22T11:46:55.333Z,53.69
2022-09-22T11:50:00.225Z,53.22
2022-09-22T11:52:58.461Z,52.39
2022-09-22T11:55:40.271Z,52.22
2022-09-22T11:58:25.860Z,52.06
2022-09-22T12:01:13.091Z,51.48
2022-09-22T12:03:48.274Z,51.67
2022-09-22T12:06:26.952Z,51.55
2022-09-22T12:09:14.052Z,51.83
2022-09-22T12:11:42.776Z,51.02
2022-09-22T12:14:16.477Z,50.33
2022-09-22T12:17:00.669Z,48.98
2022-09-22T12:19:31.876Z,48.76
2022-09-22T12:22:20.943Z,47.15
2022-09-22T12:24:49.992Z,46.85
2022-09-22T12:27:28.037Z,46.98
2022-09-22T12:30:04.020Z,47.60
2022-09-22T12:32:43.242Z,48.34
2022-09-22T12:35:30.328Z,48.59
2022-09-22T12:38:05.646Z,48.53
2022-09-22T12:40:37.662Z,48.05
2022-09-22T12:43:32.652Z,49.10
2022-09-22T12:46:14.019Z,49.76
2022-09-22T12:48:57.071Z,48.82
2022-09-22T12:51:33.724Z,49.27
2022-09-22T12:54:25.029Z,49.00
2022-09-22T12:57:24.076Z,48.97
2022-09-22T13:00:14.478Z,49.42
2022-09-22T13:02:44.995Z,47.67
2022-09-22T13:05:12.492Z,48.94
2022-09-22T13:07:45.643Z,50.45
2022-09-22T13:10:22.716Z,52.01
2022-09-22T13:13:10.902Z,50.84
2022-09-22T13:15:46.492Z,51.09
2022-09-22T13:18:52.392Z,50.91
2022-09-22T13:21:24.428Z,50.76
2022-09-22T13:23:52.282Z,50.54
2022-09-22T13:26:28.210Z,50.50
2022-09-22T13:29:21.580Z,50.24
2022-09-22T13:31:57.229Z,51.47
2022-09-22T13:34:35.840Z,52.89
2022-09-22T13:37:24.771Z,53.32
2022-09-22T13:39:54.785Z,52.73
2022-09-22T13:42:35.030Z,52.86
2022-09-22T13:45:06.967Z,53.70
2022-09-22T13:47:38.245Z,53.23
2022-09-22T13:50:10.113Z,52.93
2022-09-22T13:52:40.414Z,51.99
2022-09-22T13:55:26.738Z,52.19
2022-09-22T13:57:59.430Z,51.96
2022-09-22T14:00:49.861Z,53.82
2022-09-22T14:03:23.050Z,53.72
2022-09-22T14:05:53.974Z,52.16
2022-09-22T14:08:29.774Z,52.67
2022-09-22T14:10:59.862Z,52.27
2022-09-22T14:14:01.837Z,52.26
2022-09-22T14:16:36.793Z,51.57
2022-09-22T14:19:29.634Z,53.40
2022-09-22T14:21:59.617Z,53.44
2022-09-22T14:24:34.241Z,52.77
2022-09-22T14:27:09.979Z,51.81
2022-09-22T14:29:41.296Z,52.37
2022-09-22T14:32:20.246Z,52.33
2022-09-22T14:34:50.176Z,52.21
2022-09-22T14:37:21.143Z,52.15
2022-09-22T14:39:51.284Z,51.88
2022-09-22T14:42:26.477Z,51.11
2022-09-22T14:45:14.380Z,51.27
2022-09-22T14:47:43.117Z,52.35
2022-09-22T14:50:37.797Z,51.49
2022-09-22T14:53:19.784Z,53.33
2022-09-22T14:55:51.086Z,53.19
2022-09-22T14:58:25.956Z,52.33
2022-09-22T15:01:32.077Z,51.88
2022-09-22T15:04:04.548Z,52.45
2022-09-22T15:06:40.333Z,52.06
2022-09-22T15:09:19.951Z,52.44
2022-09-22T15:12:03.410Z,51.64
2022-09-22T15:14:40.993Z,51.82
2022-09-22T15:17:54.324Z,52.33
2022-09-22T15:20:29.398Z,52.38
2022-09-22T15:22:58.196Z,52.98
2022-09-22T15:25:25.953Z,52.75
2022-09-22T15:28:27.319Z,52.39
2022-09-22T15:30:55.281Z,51.53
2022-09-22T15:33:23.616Z,51.53
2022-09-22T15:36:01.283Z,51.85
2022-09-22T15:38:38.223Z,51.99
2022-09-22T15:41:06.501Z,51.54
2022-09-22T15:43:35.040Z,52.27
2022-09-22T15:46:05.905Z,52.27
2022-09-22T15:48:41.131Z,53.06
2022-09-22T15:51:15.063Z,52.92
2022-09-22T15:53:46.656Z,53.00
2022-09-22T15:56:22.603Z,52.40
2022-09-22T15:58:54.179Z,52.18
2022-09-22T16:01:29.950Z,51.74
2022-09-22T16:04:01.158Z,52.26
2022-09-22T16:06:29.231Z,52.86
2022-09-22T16:08:58.869Z,53.31
2022-09-22T16:11:31.119Z,53.65
2022-09-22T16:14:06.895Z,53.34
2022-09-22T16:16:36.752Z,52.90
2022-09-22T16:19:11.227Z,52.55
2022-09-22T16:21:41.678Z,53.33
2022-09-22T16:24:10.986Z,52.78
2022-09-22T16:26:40.701Z,52.82
2022-09-22T16:29:09.244Z,53.29
2022-09-22T16:31:37.839Z,53.31
2022-09-22T16:34:09.022Z,53.13
2022-09-22T16:36:59.737Z,52.82
2022-09-22T16:39:28.110Z,52.82
2022-09-22T16:41:59.817Z,53.84
2022-09-22T16:44:27.874Z,52.75
2022-09-22T16:46:56.054Z,54.04
2022-09-22T16:49:25.244Z,54.35
2022-09-22T16:51:54.662Z,54.90
2022-09-22T16:54:22.799Z,54.12
2022-09-22T16:56:52.381Z,53.87
2022-09-22T16:59:22.937Z,53.94
2022-09-22T17:01:51.303Z,53.79
2022-09-22T17:04:19.802Z,54.29
2022-09-22T17:06:48.446Z,54.84
2022-09-22T17:09:17.277Z,54.82
2022-09-22T17:11:46.799Z,54.99
2022-09-22T17:14:24.821Z,55.16
2022-09-22T17:16:56.867Z,55.62
2022-09-22T17:19:28.202Z,55.68
2022-09-22T17:21:57.393Z,55.15
2022-09-22T17:24:26.656Z,55.61
2022-09-22T17:26:59.428Z,56.26
2022-09-22T17:29:32.965Z,56.43
2022-09-22T17:32:03.617Z,56.66
2022-09-22T17:34:35.689Z,56.51
2022-09-22T17:37:04.969Z,56.21
2022-09-22T17:39:32.644Z,56.31
2022-09-22T17:42:00.555Z,56.71
2022-09-22T17:44:31.252Z,56.90
2022-09-22T17:47:18.065Z,57.15
2022-09-22T17:50:04.119Z,56.99
2022-09-22T17:52:32.279Z,57.14
2022-09-22T17:55:10.554Z,56.56
2022-09-22T17:57:44.055Z,57.17
2022-09-22T18:00:15.405Z,57.06
2022-09-22T18:02:44.245Z,57.15
2022-09-22T18:05:14.428Z,57.12
2022-09-22T18:07:42.890Z,56.91
2022-09-22T18:10:13.537Z,57.74
2022-09-22T18:12:43.015Z,57.89
2022-09-22T18:15:13.705Z,58.19
2022-09-22T18:17:43.372Z,58.06
2022-09-22T18:20:18.763Z,58.90
2022-09-22T18:22:48.369Z,58.70
2022-09-22T18:25:19.905Z,58.34
2022-09-22T18:27:51.308Z,58.02
2022-09-22T18:30:23.598Z,57.26
2022-09-22T18:32:58.172Z,57.93
2022-09-22T18:35:34.545Z,58.12
2022-09-22T18:38:04.198Z,58.03
2022-09-22T18:40:34.355Z,58.02
2022-09-22T18:43:03.483Z,58.45
2022-09-22T18:45:32.713Z,58.31
2022-09-22T18:48:03.377Z,58.94
2022-09-22T18:50:36.172Z,58.89
2022-09-22T18:53:04.429Z,58.27
2022-09-22T18:55:32.941Z,58.76
2022-09-22T18:58:01.460Z,58.67
2022-09-22T19:00:30.154Z,58.53
2022-09-22T19:02:59.514Z,58.42
2022-09-22T19:05:29.103Z,58.21
2022-09-22T19:08:01.124Z,57.98
2022-09-22T19:10:28.660Z,58.50
2022-09-22T19:12:56.541Z,57.20
2022-09-22T19:15:26.125Z,56.96
2022-09-22T19:17:53.787Z,57.48
2022-09-22T19:20:26.577Z,56.98
2022-09-22T19:22:55.002Z,57.12
2022-09-22T19:25:23.564Z,57.42
2022-09-22T19:27:52.951Z,56.96
2022-09-22T19:30:24.840Z,56.81
2022-09-22T19:32:55.940Z,56.73
2022-09-22T19:35:24.173Z,56.41
2022-09-22T19:37:54.076Z,56.55
2022-09-22T19:40:25.632Z,56.43
2022-09-22T19:42:54.936Z,56.83
2022-09-22T19:45:28.490Z,57.12
2022-09-22T19:51:11.291Z,57.13
2022-09-22T19:53:39.517Z,56.90
2022-09-22T19:56:08.292Z,57.03
2022-09-22T19:58:36.867Z,56.90
2022-09-22T20:01:09.080Z,56.98
2022-09-22T20:03:37.629Z,57.05
2022-09-22T20:06:06.403Z,57.01
2022-09-22T20:08:39.140Z,57.33
2022-09-22T20:11:25.723Z,57.27
2022-09-22T20:14:17.961Z,57.59
2022-09-22T20:17:01.918Z,58.23
2022-09-22T20:19:50.378Z,58.90
2022-09-22T20:22:32.332Z,58.93
2022-09-22T20:25:12.883Z,59.19
2022-09-22T20:27:45.281Z,59.29
2022-09-22T20:30:18.358Z,59.78
2022-09-22T20:33:03.781Z,59.27
2022-09-22T20:35:43.183Z,59.67
2022-09-22T20:38:19.839Z,59.54
2022-09-22T20:40:56.120Z,59.96
2022-09-22T20:43:32.270Z,60.14
2022-09-22T20:46:05.721Z,60.18
2022-09-22T20:48:37.043Z,60.16
2022-09-22T20:51:19.001Z,60.16
2022-09-22T20:53:57.460Z,60.17
2022-09-22T20:56:29.926Z,60.68
2022-09-22T20:59:01.830Z,60.46
2022-09-22T21:01:33.211Z,60.21
2022-09-22T21:04:16.156Z,60.44
2022-09-22T21:06:48.537Z,60.13
2022-09-22T21:09:35.562Z,60.20
2022-09-22T21:12:09.126Z,60.44
2022-09-22T21:14:37.061Z,60.39
2022-09-22T21:17:07.703Z,60.80
2022-09-22T21:19:37.016Z,61.09
2022-09-22T21:22:05.261Z,60.90
2022-09-22T21:24:32.926Z,61.03
2022-09-22T21:27:00.731Z,60.87
2022-09-22T21:29:32.655Z,60.65
2022-09-22T21:32:04.235Z,60.45
2022-09-22T21:34:32.431Z,60.61
2022-09-22T21:37:01.197Z,60.37
2022-09-22T21:39:34.908Z,60.78
2022-09-22T21:42:03.507Z,60.32
2022-09-22T21:44:31.386Z,60.86
2022-09-22T21:47:01.175Z,60.56
2022-09-22T21:49:29.628Z,60.95
2022-09-22T21:51:58.215Z,61.30
2022-09-22T21:54:27.269Z,60.94
2022-09-22T21:56:55.541Z,61.16
2022-09-22T21:59:23.561Z,61.42
2022-09-22T22:01:52.314Z,61.45
2022-09-22T22:04:21.201Z,61.81
2022-09-22T22:06:50.367Z,61.81
2022-09-22T22:09:24.164Z,61.72
2022-09-22T22:11:58.672Z,62.11
2022-09-22T22:14:33.509Z,62.19
2022-09-22T22:17:03.576Z,61.89
2022-09-22T22:19:32.268Z,61.86
2022-09-22T22:22:01.138Z,61.94
2022-09-22T22:24:32.143Z,62.18
2022-09-22T22:27:10.295Z,62.04
2022-09-22T22:29:41.721Z,62.64
2022-09-22T22:32:10.869Z,62.57
2022-09-22T22:34:39.090Z,62.67
2022-09-22T22:37:10.136Z,62.60
2022-09-22T22:39:38.653Z,62.24
2022-09-22T22:42:07.616Z,62.23
2022-09-22T22:44:36.605Z,62.56
2022-09-22T22:47:05.694Z,62.29
2022-09-22T22:49:33.756Z,62.34
2022-09-22T22:52:01.906Z,62.57
2022-09-22T22:54:29.798Z,62.16
2022-09-22T22:56:57.665Z,62.32
2022-09-22T22:59:25.036Z,62.34
2022-09-22T23:01:55.087Z,62.68
2022-09-22T23:04:32.798Z,62.94
2022-09-22T23:07:20.957Z,63.21
2022-09-22T23:10:12.412Z,62.93
2022-09-22T23:12:53.069Z,63.34
2022-09-22T23:15:24.537Z,63.12
2022-09-22T23:17:52.850Z,63.30
2022-09-22T23:20:26.686Z,63.42
2022-09-22T23:22:54.963Z,63.28
2022-09-22T23:25:29.898Z,63.34
2022-09-22T23:28:08.723Z,63.12
2022-09-22T23:30:49.224Z,63.43
2022-09-22T23:33:21.560Z,63.32
2022-09-22T23:36:00.818Z,63.17
2022-09-22T23:38:31.248Z,63.15
2022-09-22T23:41:01.001Z,62.77
2022-09-22T23:43:34.541Z,62.55
2022-09-22T23:46:06.007Z,62.93
2022-09-22T23:48:42.816Z,63.06
2022-09-22T23:51:16.714Z,62.68
2022-09-22T23:53:49.917Z,62.97
2022-09-22T23:56:20.146Z,63.16
2022-09-22T23:58:49.985Z,62.91
